Time;durP1;ratioP1;P1;durP2;ratioP2;P2;SDS_P1;SDS_P2;PMS_P1;PMS_P2;Temp;Humidity;BMP_temperature;BMP_pressure;BME280_temperature;BME280_humidity;BME280_pressure;Samples;Min_cycle;Max_cycle;Signal;HPM_P1;HPM_P2
2023/04/18 00:02:53;;;;;;;4.63;2.53;;;;;;;6.36;75.07;102213.81;15480687;28;20066;-82
2023/04/18 00:10:26;;;;;;;9.13;3.10;;;;;;;6.71;75.27;102270.94;15500960;28;20047;-82
2023/04/18 00:18:04;;;;;;;3.83;1.90;;;;;;;6.62;74.94;102292.22;15501477;28;20510;-82
2023/04/18 00:25:40;;;;;;;5.75;3.38;;;;;;;6.71;74.58;102284.28;15499680;28;20043;-83
2023/04/18 00:33:15;;;;;;;4.45;2.17;;;;;;;6.17;75.14;102241.38;15497768;28;20043;-82
2023/04/18 00:40:48;;;;;;;4.70;2.90;;;;;;;6.13;75.06;102240.81;15496359;28;20046;-83
2023/04/18 00:48:23;;;;;;;5.72;3.67;;;;;;;6.53;74.77;102258.41;15500214;28;20555;-82
2023/04/18 00:55:57;;;;;;;2.28;1.60;;;;;;;6.55;74.83;102285.75;15513014;28;20483;-83
2023/04/18 01:03:33;;;;;;;;;;;;;;;6.35;75.55;102278.81;15494474;28;20486;-83
2023/04/18 01:11:06;;;;;;;4.25;3.58;;;;;;;6.35;75.07;102284.16;15488416;23;19921;-49
2023/04/18 01:18:40;;;;;;;5.00;2.87;;;;;;;6.48;74.99;102287.34;15509593;23;20097;-52
2023/04/18 01:26:15;;;;;;;6.57;2.53;;;;;;;6.51;74.43;102283.53;15482545;28;20142;-50
2023/04/18 01:33:50;;;;;;;6.75;2.70;;;;;;;6.43;74.53;102294.91;15501257;28;20296;-51
2023/04/18 01:41:28;;;;;;;11.32;4.60;;;;;;;6.67;73.74;102288.22;15500838;28;20511;-49
2023/04/18 01:49:01;;;;;;;3.20;2.90;;;;;;;6.66;73.83;102284.72;15501450;28;20061;-49
2023/04/18 01:56:35;;;;;;;5.90;2.63;;;;;;;6.77;73.90;102281.06;15476979;28;20455;-46
2023/04/18 02:04:08;;;;;;;4.40;2.78;;;;;;;6.58;74.36;102284.66;15457124;28;20081;-48
2023/04/18 02:11:43;;;;;;;4.38;2.60;;;;;;;6.81;73.53;102279.78;15464399;28;20043;-49
2023/04/18 02:19:16;;;;;;;2.67;1.92;;;;;;;6.48;74.04;102279.34;15460069;28;20046;-50
2023/04/18 02:26:50;;;;;;;13.07;4.20;;;;;;;6.79;73.30;102273.72;15455563;28;20034;-48
2023/04/18 02:34:25;;;;;;;1.92;1.58;;;;;;;6.60;74.18;102278.16;15469878;28;20137;-51
2023/04/18 02:42:00;;;;;;;4.93;2.88;;;;;;;6.55;73.81;102285.75;15481962;28;20634;-47
2023/04/18 02:49:33;;;;;;;3.53;2.75;;;;;;;6.70;72.62;102264.78;15494075;28;20049;-51
2023/04/18 02:57:08;;;;;;;4.65;2.67;;;;;;;6.42;73.99;102293.25;15482035;28;20645;-49
2023/04/18 03:05:00;;;;;;;6.60;2.67;;;;;;;6.47;73.00;102290.97;15472431;28;20407;-51
2023/04/18 03:12:35;;;;;;;8.45;2.72;;;;;;;6.61;73.21;102287.84;15447643;28;20528;-47
2023/04/18 03:20:11;;;;;;;11.15;3.63;;;;;;;6.81;72.31;102295.78;15492102;28;20080;-52
2023/04/18 03:27:45;;;;;;;2.45;1.95;;;;;;;6.48;73.17;102297.16;15505895;28;20070;-47
2023/04/18 03:35:22;;;;;;;7.47;2.78;;;;;;;6.20;73.63;102291.78;15493229;28;20060;-49
2023/04/18 03:42:58;;;;;;;6.95;2.78;;;;;;;6.41;72.80;102293.38;15475808;28;20482;-50
2023/04/18 03:50:33;;;;;;;26.65;3.78;;;;;;;6.41;72.38;102296.06;15473955;28;20496;-51
2023/04/18 03:58:10;;;;;;;4.53;2.30;;;;;;;5.74;73.87;102274.66;15500436;28;20058;-49
2023/04/18 04:05:45;;;;;;;2.17;1.70;;;;;;;6.07;73.32;102294.72;15463671;28;20057;-50
2023/04/18 04:13:21;;;;;;;3.90;2.40;;;;;;;6.33;72.92;102302.09;15464185;28;20046;-46
2023/04/18 04:20:55;;;;;;;8.77;2.85;;;;;;;5.91;74.92;102317.56;15469523;28;20145;-53
2023/04/18 04:28:41;;;;;;;4.90;2.65;;;;;;;6.09;74.04;102315.91;15472120;28;20522;-52
2023/04/18 04:36:15;;;;;;;4.80;3.65;;;;;;;6.27;73.28;102319.53;15454404;28;20065;-50
2023/04/18 04:43:52;;;;;;;4.75;3.10;;;;;;;6.39;72.70;102331.72;15463047;28;20050;-50
2023/04/18 04:51:34;;;;;;;5.93;1.83;;;;;;;6.63;71.79;102333.91;15484921;28;20046;-52
2023/04/18 04:59:09;;;;;;;6.63;4.07;;;;;;;6.25;73.04;102336.63;15485845;28;20085;-47
2023/04/18 05:06:46;;;;;;;2.97;1.70;;;;;;;6.39;72.27;102330.88;15470501;28;20058;-49
2023/04/18 05:14:21;;;;;;;4.57;2.55;;;;;;;6.65;72.06;102333.75;15444776;28;20451;-52
2023/04/18 05:21:54;;;;;;;7.93;3.47;;;;;;;6.59;71.66;102335.19;15450607;28;20052;-52
2023/04/18 05:29:28;;;;;;;8.23;2.38;;;;;;;6.43;72.46;102320.75;15454717;28;20042;-50
2023/04/18 05:37:01;;;;;;;4.45;3.05;;;;;;;7.29;70.57;102338.25;15495136;28;20043;-49
2023/04/18 05:44:36;;;;;;;4.50;3.45;;;;;;;8.09;67.91;102341.03;15493915;28;20046;-49
2023/04/18 05:52:10;;;;;;;17.50;5.22;;;;;;;7.83;68.66;102338.28;15485814;28;20043;-53
2023/04/18 05:59:44;;;;;;;;;;;;;;;8.02;67.14;102340.84;15488830;28;20123;-49
2023/04/18 06:07:17;;;;;;;3.72;2.97;;;;;;;8.45;65.60;102338.34;15488810;28;20347;-49
2023/04/18 06:14:51;;;;;;;12.00;2.72;;;;;;;9.29;63.50;102345.63;15490285;28;20047;-52
2023/04/18 06:22:24;;;;;;;7.85;2.67;;;;;;;9.47;61.79;102357.09;15499938;28;20097;-46
2023/04/18 06:29:58;;;;;;;6.75;2.20;;;;;;;9.11;63.44;102354.59;15483796;28;20056;-52
2023/04/18 06:37:31;;;;;;;5.10;2.35;;;;;;;8.26;66.23;102364.25;15500919;28;20072;-51
2023/04/18 06:45:09;;;;;;;4.47;3.25;;;;;;;7.99;67.25;102365.19;15499693;28;20051;-49
2023/04/18 06:52:44;;;;;;;4.20;2.92;;;;;;;8.41;65.86;102360.03;15498898;28;20038;-49
2023/04/18 07:00:19;;;;;;;5.25;2.97;;;;;;;8.71;66.41;102365.09;15499228;28;20133;-50
2023/04/18 07:07:52;;;;;;;2.28;1.73;;;;;;;8.97;64.57;102363.25;15498758;28;20422;-48
2023/04/18 07:15:26;;;;;;;1.80;1.63;;;;;;;9.13;64.67;102378.53;15499005;28;20117;-51
2023/04/18 07:23:01;;;;;;;7.32;2.95;;;;;;;8.93;65.51;102380.63;15499191;23;20136;-51
2023/04/18 07:30:36;;;;;;;10.90;2.43;;;;;;;9.01;65.40;102372.63;15493907;28;20478;-54
2023/04/18 07:38:10;;;;;;;3.53;2.35;;;;;;;9.31;65.59;102375.75;15489847;28;20345;-54
2023/04/18 07:45:44;;;;;;;5.38;3.13;;;;;;;9.22;63.73;102374.06;15509165;28;20050;-52
2023/04/18 07:53:17;;;;;;;4.68;2.83;;;;;;;9.66;63.64;102382.75;15490430;28;20257;-52
2023/04/18 08:00:52;;;;;;;3.38;2.05;;;;;;;9.92;63.85;102382.63;15495595;28;20081;-53
2023/04/18 08:08:25;;;;;;;5.35;2.65;;;;;;;9.83;61.75;102383.63;15495045;28;20057;-54
2023/04/18 08:16:01;;;;;;;5.63;1.83;;;;;;;10.56;60.84;102391.72;15494802;28;20054;-54
2023/04/18 08:23:33;;;;;;;6.05;2.65;;;;;;;10.57;59.64;102390.72;15493744;28;20407;-56
2023/04/18 08:31:12;;;;;;;8.60;2.57;;;;;;;9.90;62.10;102382.81;15491695;28;20109;-53
2023/04/18 08:38:45;;;;;;;8.77;3.20;;;;;;;9.91;63.07;102376.44;15485408;28;20046;-54
2023/04/18 08:46:19;;;;;;;4.07;1.95;;;;;;;10.60;62.10;102374.28;15492104;28;20070;-54
2023/04/18 08:53:54;;;;;;;5.32;3.17;;;;;;;10.13;63.95;102377.63;15513242;28;20054;-52
2023/04/18 09:01:55;;;;;;;6.28;3.08;;;;;;;9.97;63.63;102380.28;15488840;28;20039;-52
2023/04/18 09:09:39;;;;;;;5.25;1.98;;;;;;;9.69;64.63;102391.28;15487903;28;20046;-53
2023/04/18 09:17:17;;;;;;;5.13;2.63;;;;;;;9.84;65.06;102377.25;15489703;28;20462;-52
2023/04/18 09:24:54;;;;;;;3.90;2.83;;;;;;;9.51;65.76;102384.38;15499118;28;20138;-53
2023/04/18 09:32:29;;;;;;;4.85;2.47;;;;;;;10.15;64.05;102391.69;15488764;28;20054;-55
2023/04/18 09:40:17;;;;;;;7.68;3.20;;;;;;;10.67;62.56;102379.78;15504652;28;20043;-53
2023/04/18 09:47:55;;;;;;;6.05;1.80;;;;;;;11.16;61.68;102375.13;15519632;28;20443;-54
2023/04/18 09:55:30;;;;;;;4.93;3.35;;;;;;;11.63;61.21;102368.84;15539876;28;20065;-55
2023/04/18 10:03:08;;;;;;;6.00;2.92;;;;;;;11.58;60.73;102368.53;15500104;28;20066;-51
2023/04/18 10:10:41;;;;;;;7.82;3.45;;;;;;;11.91;60.01;102368.38;15500983;28;20050;-51
2023/04/18 10:18:16;;;;;;;5.83;3.93;;;;;;;11.95;60.32;102351.69;15514563;28;20054;-55
2023/04/18 10:25:50;;;;;;;2.47;1.98;;;;;;;12.06;60.23;102363.88;15496894;28;20046;-54
2023/04/18 10:33:32;;;;;;;6.90;3.15;;;;;;;12.68;59.30;102362.81;15494963;28;20149;-55
2023/04/18 10:41:23;;;;;;;7.90;2.75;;;;;;;13.52;56.27;102349.84;15496590;28;20505;-54
2023/04/18 10:49:16;;;;;;;8.88;2.30;;;;;;;14.30;55.18;102356.22;15499020;28;20046;-52
2023/04/18 10:56:53;;;;;;;5.82;2.42;;;;;;;13.51;56.45;102351.69;15501413;28;20254;-54
2023/04/18 11:04:28;;;;;;;5.25;2.58;;;;;;;13.85;55.93;102357.44;15494202;28;20050;-55
2023/04/18 11:12:06;;;;;;;5.10;2.65;;;;;;;13.73;55.96;102352.56;15494876;28;20074;-54
2023/04/18 11:19:41;;;;;;;5.35;2.53;;;;;;;13.24;56.47;102350.56;15508942;28;20046;-55
2023/04/18 11:27:14;;;;;;;6.88;3.03;;;;;;;13.48;56.46;102340.47;15494672;28;20108;-52
2023/04/18 11:34:51;;;;;;;17.48;2.53;;;;;;;13.34;56.61;102342.19;15478152;28;20047;-54
2023/04/18 11:42:28;;;;;;;5.15;2.17;;;;;;;14.28;55.68;102334.81;15495926;28;20487;-54
2023/04/18 11:50:04;;;;;;;3.00;1.88;;;;;;;14.09;55.55;102340.88;15499703;28;20038;-55
2023/04/18 11:57:37;;;;;;;7.60;2.80;;;;;;;14.64;54.41;102324.88;15495191;28;20062;-55
2023/04/18 12:05:13;;;;;;;2.40;1.27;;;;;;;13.99;55.31;102330.41;15507572;28;20051;-54
2023/04/18 12:12:48;;;;;;;4.60;1.75;;;;;;;14.38;54.87;102330.94;15489397;28;20070;-54
2023/04/18 12:20:23;;;;;;;3.70;2.42;;;;;;;14.46;53.18;102331.63;15488321;28;20068;-51
2023/04/18 12:27:58;;;;;;;6.72;1.90;;;;;;;14.30;55.75;102335.44;15505175;28;20097;-55
2023/04/18 12:35:32;;;;;;;3.17;1.77;;;;;;;13.76;55.36;102337.88;15492778;28;20137;-53
2023/04/18 12:43:05;;;;;;;5.18;2.05;;;;;;;13.84;55.85;102332.31;15507270;28;20400;-53
2023/04/18 12:50:40;;;;;;;4.25;2.03;;;;;;;13.99;55.70;102325.03;15488384;28;20096;-54
2023/04/18 12:58:17;;;;;;;6.00;3.10;;;;;;;14.25;55.54;102327.09;15488672;28;20050;-52
2023/04/18 13:05:53;;;;;;;6.90;3.08;;;;;;;13.63;56.22;102329.63;15506920;28;20050;-53
2023/04/18 13:13:27;;;;;;;7.55;3.45;;;;;;;12.99;59.00;102323.03;15491240;28;20070;-57
2023/04/18 13:21:01;;;;;;;5.20;2.85;;;;;;;12.96;59.10;102317.19;15475146;28;20050;-55
2023/04/18 13:28:34;;;;;;;6.00;2.80;;;;;;;12.88;58.70;102311.91;15512116;28;20038;-57
2023/04/18 13:36:09;;;;;;;8.02;3.25;;;;;;;13.19;58.90;102309.81;15499621;28;20089;-54
2023/04/18 13:43:42;;;;;;;9.50;3.63;;;;;;;13.65;57.64;102308.69;15502418;28;20051;-55
2023/04/18 13:51:17;;;;;;;10.63;3.97;;;;;;;13.48;58.21;102303.53;15511561;28;20042;-54
2023/04/18 13:58:51;;;;;;;4.00;2.58;;;;;;;13.54;57.79;102301.94;15498539;28;20507;-53
2023/04/18 14:06:26;;;;;;;6.03;3.55;;;;;;;13.63;58.12;102300.78;15500796;28;20061;-52
2023/04/18 14:13:59;;;;;;;4.03;2.97;;;;;;;13.64;57.69;102299.75;15497143;28;20046;-57
2023/04/18 14:21:33;;;;;;;7.73;3.17;;;;;;;13.65;57.34;102298.72;15499857;28;20050;-55
2023/04/18 14:29:06;;;;;;;7.10;3.05;;;;;;;13.65;57.36;102285.22;15489118;28;20053;-53
2023/04/18 14:36:40;;;;;;;6.70;2.83;;;;;;;13.58;57.15;102283.50;15496683;28;20070;-54
2023/04/18 14:44:13;;;;;;;10.30;2.53;;;;;;;13.84;56.35;102281.03;15510499;28;20089;-56
2023/04/18 14:51:47;;;;;;;3.95;1.73;;;;;;;13.65;56.36;102271.75;15547071;28;20164;-54
2023/04/18 14:59:20;;;;;;;4.38;2.47;;;;;;;13.42;57.19;102268.41;15510885;28;20051;-52
2023/04/18 15:06:55;;;;;;;4.40;2.42;;;;;;;13.75;54.95;102266.00;15513416;28;20038;-54
2023/04/18 15:14:28;;;;;;;2.47;2.03;;;;;;;13.55;55.86;102255.03;15486442;28;20324;-55
2023/04/18 15:22:02;;;;;;;5.82;2.83;;;;;;;13.90;55.60;102247.91;15493762;28;20053;-52
2023/04/18 15:29:35;;;;;;;2.38;1.73;;;;;;;14.04;54.86;102257.78;15484163;28;20050;-53
2023/04/18 15:37:10;;;;;;;3.72;2.25;;;;;;;14.03;56.27;102253.41;15497028;28;20129;-53
2023/04/18 15:44:43;;;;;;;6.57;1.92;;;;;;;14.10;57.04;102261.53;15492004;28;20070;-54
2023/04/18 15:52:17;;;;;;;3.65;1.85;;;;;;;13.86;57.30;102257.41;15504790;28;20156;-54
2023/04/18 15:59:50;;;;;;;11.32;3.20;;;;;;;13.45;57.07;102259.94;15477102;28;20046;-54
2023/04/18 16:07:25;;;;;;;2.75;2.08;;;;;;;13.72;56.31;102253.75;15457759;28;20061;-51
2023/04/18 16:14:58;;;;;;;4.05;1.67;;;;;;;13.69;56.24;102256.84;15456764;28;20035;-54
2023/04/18 16:22:32;;;;;;;5.15;1.73;;;;;;;13.61;56.17;102259.66;15445372;28;20085;-53
2023/04/18 16:30:06;;;;;;;20.30;1.58;;;;;;;13.61;55.01;102256.13;15487655;28;20546;-52
2023/04/18 16:37:41;;;;;;;1.10;0.65;;;;;;;13.41;54.75;102247.84;15468272;28;20042;-52
2023/04/18 16:45:14;;;;;;;1.42;0.88;;;;;;;13.18;55.08;102253.38;15492878;28;20196;-54
2023/04/18 16:52:50;;;;;;;2.83;1.50;;;;;;;13.34;54.61;102252.34;15483296;28;20079;-53
2023/04/18 17:00:23;;;;;;;12.27;1.75;;;;;;;13.18;53.95;102256.91;15489418;28;20043;-55
2023/04/18 17:07:57;;;;;;;2.38;0.80;;;;;;;12.92;54.09;102260.16;15472230;28;20050;-53
2023/04/18 17:15:30;;;;;;;2.13;1.00;;;;;;;13.08;53.87;102260.94;15490702;28;20038;-50
2023/04/18 17:23:04;;;;;;;2.00;1.27;;;;;;;13.16;53.03;102264.38;15489980;28;20043;-53
2023/04/18 17:30:40;;;;;;;1.25;0.60;;;;;;;12.76;52.92;102263.88;15486566;28;20050;-53
2023/04/18 17:38:14;;;;;;;1.27;0.50;;;;;;;12.62;52.18;102269.25;15505586;28;20479;-57
2023/04/18 17:45:47;;;;;;;2.20;1.05;;;;;;;11.88;52.42;102213.50;15493277;28;20058;-54
2023/04/18 17:53:21;;;;;;;1.00;0.68;;;;;;;12.19;52.60;102288.72;15500573;28;20488;-51
2023/04/18 18:00:57;;;;;;;1.48;1.00;;;;;;;12.08;52.78;102285.66;15491972;28;20061;-51
2023/04/18 18:08:33;;;;;;;1.63;0.65;;;;;;;12.30;52.90;102286.59;15487088;28;20059;-53
2023/04/18 18:16:10;;;;;;;2.40;1.25;;;;;;;11.94;54.56;102287.28;15499190;28;20042;-55
2023/04/18 18:23:44;;;;;;;1.23;0.88;;;;;;;11.41;57.13;102292.50;15497636;28;20566;-55
2023/04/18 18:31:21;;;;;;;2.90;0.88;;;;;;;11.30;57.87;102316.28;15468231;28;20491;-54
2023/04/18 18:38:55;;;;;;;2.30;1.13;;;;;;;11.32;58.40;102322.31;15497163;28;20056;-52
2023/04/18 18:46:28;;;;;;;10.27;0.85;;;;;;;10.92;57.11;102326.88;15501098;28;20058;-52
2023/04/18 18:54:03;;;;;;;3.72;1.98;;;;;;;10.88;57.17;102330.91;15517646;28;20125;-53
2023/04/18 19:01:36;;;;;;;4.07;1.67;;;;;;;10.98;58.50;102335.06;15484122;28;20129;-52
2023/04/18 19:09:10;;;;;;;3.50;0.80;;;;;;;10.75;59.12;102336.81;15487816;28;20408;-57
2023/04/18 19:16:45;;;;;;;2.15;1.00;;;;;;;10.79;59.07;102350.75;15484423;28;20035;-52
2023/04/18 19:24:20;;;;;;;2.47;0.90;;;;;;;10.77;58.73;102348.25;15500411;28;20508;-53
2023/04/18 19:31:53;;;;;;;2.15;1.15;;;;;;;10.44;57.77;102353.69;15514189;28;20044;-52
2023/04/18 19:39:28;;;;;;;1.77;0.65;;;;;;;9.85;55.96;102357.50;15498904;28;20082;-50
2023/04/18 19:47:01;;;;;;;1.58;0.88;;;;;;;9.52;55.57;102362.78;15499137;28;20046;-52
2023/04/18 19:54:36;;;;;;;1.95;1.13;;;;;;;9.44;56.12;102365.44;15545194;28;20034;-56
2023/04/18 20:02:09;;;;;;;1.45;1.25;;;;;;;9.30;55.97;102364.22;15497909;28;20046;-54
2023/04/18 20:09:43;;;;;;;1.40;0.97;;;;;;;9.18;56.99;102358.28;15512315;28;20108;-51
2023/04/18 20:17:16;;;;;;;1.13;0.70;;;;;;;9.41;56.33;102366.59;15494068;28;20074;-51
2023/04/18 20:24:51;;;;;;;6.47;1.90;;;;;;;8.91;58.12;102359.38;15508507;28;20078;-51
2023/04/18 20:32:25;;;;;;;1.98;1.02;;;;;;;9.01;58.50;102356.56;15508537;28;20053;-52
2023/04/18 20:40:01;;;;;;;2.08;1.38;;;;;;;8.75;59.34;102353.91;15489216;28;20145;-50
2023/04/18 20:47:34;;;;;;;1.02;0.60;;;;;;;8.78;59.82;102358.13;15505017;28;20415;-55
2023/04/18 20:55:09;;;;;;;1.40;0.50;;;;;;;8.48;60.50;102354.91;15490248;28;20038;-52
2023/04/18 21:02:44;;;;;;;1.25;0.82;;;;;;;8.09;61.89;102352.56;15491906;28;20046;-54
2023/04/18 21:10:18;;;;;;;2.33;1.48;;;;;;;8.23;61.47;102353.03;15491881;28;20459;-50
2023/04/18 21:17:51;;;;;;;3.20;1.40;;;;;;;7.96;62.65;102352.13;15505456;28;20070;-52
2023/04/18 21:25:25;;;;;;;1.80;1.00;;;;;;;7.79;63.10;102364.50;15491045;28;20042;-50
2023/04/18 21:32:58;;;;;;;16.42;8.90;;;;;;;7.97;63.21;102355.63;15498963;28;20073;-54
2023/04/18 21:40:33;;;;;;;3.97;1.20;;;;;;;7.70;64.25;102357.41;15505891;28;20424;-52
2023/04/18 21:48:08;;;;;;;1.77;1.00;;;;;;;7.49;65.67;102362.16;15490572;28;20517;-50
2023/04/18 21:55:43;;;;;;;0.60;0.60;;;;;;;7.50;65.69;102356.66;15505920;28;20038;-53
2023/04/18 22:03:16;;;;;;;1.33;0.98;;;;;;;7.27;66.61;102353.56;15498055;28;20133;-52
2023/04/18 22:11:10;;;;;;;3.08;1.52;;;;;;;7.26;66.70;102357.22;15498829;28;20501;-52
2023/04/18 22:19:02;;;;;;;2.03;1.45;;;;;;;7.18;67.17;102354.47;15500059;28;20057;-51
2023/04/18 22:26:37;;;;;;;8.77;2.17;;;;;;;6.78;68.24;102347.63;15516535;28;20057;-50
2023/04/18 22:34:10;;;;;;;1.17;0.93;;;;;;;6.77;67.19;102334.44;15500844;28;20052;-51
2023/04/18 22:41:46;;;;;;;1.17;1.08;;;;;;;6.26;68.43;102333.00;15492424;28;20519;-49
2023/04/18 22:49:19;;;;;;;3.17;1.88;;;;;;;6.56;66.91;102329.28;15477689;28;20042;-49
2023/04/18 22:56:53;;;;;;;2.92;1.55;;;;;;;6.46;66.66;102317.81;15497803;28;20046;-49
2023/04/18 23:04:28;;;;;;;2.45;0.90;;;;;;;6.36;65.41;102324.00;15498290;28;20471;-51
2023/04/18 23:12:03;;;;;;;4.57;2.08;;;;;;;6.31;64.91;102310.25;15475039;28;20053;-54
2023/04/18 23:19:36;;;;;;;0.85;0.75;;;;;;;6.61;63.29;102317.19;15496307;28;20554;-50
2023/04/18 23:27:10;;;;;;;9.93;2.23;;;;;;;6.33;63.11;102315.44;15497576;28;20590;-54
2023/04/18 23:34:45;;;;;;;0.93;0.52;;;;;;;6.33;62.31;102312.78;15511452;28;20043;-52
2023/04/18 23:42:20;;;;;;;5.88;2.80;;;;;;;6.46;62.28;102317.81;15495402;28;20107;-51
2023/04/18 23:49:52;;;;;;;1.42;0.80;;;;;;;6.26;61.65;102301.84;15489400;28;20054;-52
2023/04/18 23:57:28;;;;;;;0.95;0.60;;;;;;;6.18;62.24;102299.06;15491219;28;20046;-49
